Aérodrome :
LOGIN :

S'inscrire | Disclaimer

   EN    FR    IT 

 










Légende :    VFR   VFR Marginal   IFR   IFR Intensif   IFR Très Intensif
Visi : 
Plafond : 
>= 8 km
>= 3000ft
5 à 8 km
1000 à 3000 ft
1500m à 5 km
500 à 1000 ft
800 à 1500m
200 à 500 ft
< 800m
< 200 ft
Symboles :   Orages  Brouillard  Fortes neiges  Fortes précipitations  Vent > 20 kt
SIGMETs :   Divers  Orages  Givrage  Turbulence  Onde Orograph.  Cendres Volcan.







- Altitude de l'aérodrome : 586 ft


LIMN - Cameri Air Force Base

DERNIER METAR :
  • 180655Z VRB02KT CAVOK M03/M06 Q1022 RMK SCT SCT080 VIS MIN 9999 BLU

METARs EXPIRÉS :
  • 180555Z 30003KT CAVOK M03/M06 Q1022 RMK SCT SCT080 VIS MIN 9999 BLU
  • 180455Z 32003KT CAVOK M02/M07 Q1022 RMK SCT SCT080 VIS MIN 9999 BLU

TAF TAF LIMN
Valide du 18 à 06h jusqu'au 18 à 15h UTC


180500Z 1806/1815 32005KT 9999 FEW040
Pas de NOTAMs connus pour ce terrain.



MET'MAP, la Météo Aéronautique d'un coup d'oeil ! - Copyright ORBIFLY Décembre 2007 - Disclaimer

ORBIFLY MET'MAP TEAM :

Programmation & Développement : Alexandra Zaïnal
Conception & Développement : Baudouin d'Aumeries
Co-Programmation & Développement : Marc-Olivier Méhu
Soutien technique & logistique : Manuel Goepfert

Contact : metmap@orbifly.com




SOURCES & CREDITS :

   NOAA